createdAt,value
2023-11-22T00:00:24.009Z,4.87
2023-11-22T00:00:55.877Z,4.88
2023-11-22T00:01:28.502Z,4.87
2023-11-22T00:02:00.447Z,4.86
2023-11-22T00:02:32.364Z,4.84
2023-11-22T00:03:04.290Z,4.86
2023-11-22T00:03:36.196Z,4.89
2023-11-22T00:04:11.009Z,4.89
2023-11-22T00:04:42.853Z,4.91
2023-11-22T00:05:14.730Z,4.92
2023-11-22T00:05:47.817Z,4.93
2023-11-22T00:06:21.789Z,4.93
2023-11-22T00:06:53.676Z,4.94
2023-11-22T00:07:25.492Z,4.95
2023-11-22T00:07:58.211Z,4.98
2023-11-22T00:08:30.717Z,4.98
2023-11-22T00:09:02.672Z,4.99
2023-11-22T00:09:34.484Z,4.96
2023-11-22T00:10:07.405Z,4.97
2023-11-22T00:10:39.307Z,4.98
2023-11-22T00:11:11.202Z,5.01
2023-11-22T00:11:43.080Z,5.03
2023-11-22T00:12:14.964Z,5.03
2023-11-22T00:12:46.810Z,5.05
2023-11-22T00:13:18.628Z,5.07
2023-11-22T00:13:50.481Z,5.08
2023-11-22T00:14:22.767Z,5.07
2023-11-22T00:14:55.144Z,5.09
2023-11-22T00:15:27.319Z,5.10
2023-11-22T00:15:59.149Z,5.13
2023-11-22T00:16:31.480Z,5.11
2023-11-22T00:17:03.703Z,5.12
2023-11-22T00:17:36.213Z,5.11
2023-11-22T00:18:08.284Z,5.10
2023-11-22T00:18:40.334Z,5.11
2023-11-22T00:19:12.210Z,5.11
2023-11-22T00:19:45.535Z,5.15
2023-11-22T00:20:18.723Z,5.16
2023-11-22T00:20:50.577Z,5.18
2023-11-22T00:21:22.399Z,5.18
2023-11-22T00:21:54.214Z,5.18
2023-11-22T00:22:28.600Z,5.16
2023-11-22T00:23:01.037Z,5.14
2023-11-22T00:23:33.778Z,5.11
2023-11-22T00:24:06.162Z,5.09
2023-11-22T00:24:38.257Z,5.09
2023-11-22T00:25:12.687Z,5.09
2023-11-22T00:25:46.299Z,5.05
2023-11-22T00:26:18.165Z,5.06
2023-11-22T00:26:50.586Z,5.05
2023-11-22T00:27:23.152Z,5.03
2023-11-22T00:27:56.484Z,5.01
2023-11-22T00:28:28.495Z,5.03
2023-11-22T00:29:00.553Z,5.05
2023-11-22T00:29:32.468Z,5.06
2023-11-22T00:30:05.560Z,5.04
2023-11-22T00:30:37.460Z,5.06
2023-11-22T00:31:09.377Z,5.06
2023-11-22T00:31:41.636Z,5.06
2023-11-22T00:32:13.770Z,5.06
2023-11-22T00:32:45.825Z,5.04
2023-11-22T00:33:19.277Z,5.02
2023-11-22T00:33:51.096Z,5.02
2023-11-22T00:34:24.202Z,5.03
2023-11-22T00:34:56.143Z,5.03
2023-11-22T00:35:28.289Z,5.05
2023-11-22T00:36:00.183Z,5.00
2023-11-22T00:36:32.025Z,5.00
2023-11-22T00:37:03.835Z,5.02
2023-11-22T00:37:35.995Z,5.03
2023-11-22T00:38:07.867Z,5.04
2023-11-22T00:38:40.759Z,5.04
2023-11-22T00:39:14.631Z,5.04
2023-11-22T00:39:46.467Z,5.01
2023-11-22T00:40:18.410Z,4.99
2023-11-22T00:40:51.232Z,5.00
2023-11-22T00:41:23.078Z,5.01
2023-11-22T00:41:54.957Z,5.02
2023-11-22T00:42:26.805Z,5.03
2023-11-22T00:42:59.182Z,5.03
2023-11-22T00:43:31.058Z,5.01
2023-11-22T00:44:04.805Z,4.97
2023-11-22T00:44:37.402Z,4.97
2023-11-22T00:45:10.950Z,4.97
2023-11-22T00:45:42.821Z,4.99
2023-11-22T00:46:14.711Z,4.98
2023-11-22T00:46:47.047Z,4.95
2023-11-22T00:47:18.999Z,4.92
2023-11-22T00:47:51.641Z,4.91
2023-11-22T00:48:23.620Z,4.90
2023-11-22T00:48:56.655Z,4.92
2023-11-22T00:49:28.487Z,4.89
2023-11-22T00:50:00.630Z,4.89
2023-11-22T00:50:32.505Z,4.89
2023-11-22T00:51:09.683Z,4.92
2023-11-22T00:51:41.570Z,4.92
2023-11-22T00:52:14.423Z,4.91
2023-11-22T00:52:47.370Z,4.88
2023-11-22T00:53:19.700Z,4.86
2023-11-22T00:53:52.210Z,4.84
2023-11-22T00:54:24.032Z,4.83
2023-11-22T00:54:55.865Z,4.84
2023-11-22T00:55:28.174Z,4.84
2023-11-22T00:56:00.045Z,4.82
2023-11-22T00:56:32.035Z,4.82
2023-11-22T00:57:04.037Z,4.82
2023-11-22T00:57:35.958Z,4.82
2023-11-22T00:58:08.714Z,4.82
2023-11-22T00:58:40.616Z,4.82
2023-11-22T00:59:12.530Z,4.78
2023-11-22T00:59:44.756Z,4.77
2023-11-22T01:00:17.030Z,4.74
2023-11-22T01:00:48.847Z,4.75
2023-11-22T01:01:21.225Z,4.75
2023-11-22T01:01:53.182Z,4.72
2023-11-22T01:02:25.056Z,4.71
2023-11-22T01:02:56.996Z,4.73
2023-11-22T01:03:28.975Z,4.72
2023-11-22T01:04:00.958Z,4.69
2023-11-22T01:04:35.279Z,4.68
2023-11-22T01:05:12.441Z,4.69
2023-11-22T01:05:44.548Z,4.64
2023-11-22T01:06:16.397Z,4.65
2023-11-22T01:06:48.226Z,4.60
2023-11-22T01:07:20.036Z,4.61
2023-11-22T01:07:51.981Z,4.62
2023-11-22T01:08:23.833Z,4.65
2023-11-22T01:08:55.795Z,4.67
2023-11-22T01:09:29.833Z,4.68
2023-11-22T01:10:01.954Z,4.69
2023-11-22T01:10:33.778Z,4.68
2023-11-22T01:11:06.918Z,4.65
2023-11-22T01:11:39.019Z,4.65
2023-11-22T01:12:13.133Z,4.65
2023-11-22T01:12:45.352Z,4.66
2023-11-22T01:13:17.217Z,4.65
2023-11-22T01:13:49.492Z,4.63
2023-11-22T01:14:21.382Z,4.60
2023-11-22T01:14:53.291Z,4.60
2023-11-22T01:15:25.943Z,4.60
2023-11-22T01:15:57.797Z,4.62
2023-11-22T01:16:29.649Z,4.62
2023-11-22T01:17:01.496Z,4.62
2023-11-22T01:17:34.621Z,4.62
2023-11-22T01:18:06.874Z,4.61
2023-11-22T01:18:40.230Z,4.54
2023-11-22T01:19:12.670Z,4.51
2023-11-22T01:19:44.542Z,4.53
2023-11-22T01:20:16.387Z,4.54
2023-11-22T01:20:48.248Z,4.49
2023-11-22T01:21:20.730Z,4.51
2023-11-22T01:21:52.562Z,4.49
2023-11-22T01:22:24.452Z,4.49
2023-11-22T01:22:56.326Z,4.52
2023-11-22T01:23:29.162Z,4.55
2023-11-22T01:24:01.118Z,4.57
2023-11-22T01:24:32.932Z,4.58
2023-11-22T01:25:05.863Z,4.57
2023-11-22T01:25:37.672Z,4.57
2023-11-22T01:26:09.534Z,4.58
2023-11-22T01:26:41.585Z,4.58
2023-11-22T01:27:13.493Z,4.60
2023-11-22T01:27:45.326Z,4.58
2023-11-22T01:28:18.319Z,4.60
2023-11-22T01:28:50.146Z,4.57
2023-11-22T01:29:22.010Z,4.58
2023-11-22T01:29:55.489Z,4.55
2023-11-22T01:30:29.735Z,4.55
2023-11-22T01:31:05.038Z,4.58
2023-11-22T01:31:36.913Z,4.59
2023-11-22T01:32:09.870Z,4.59
2023-11-22T01:32:41.877Z,4.59
2023-11-22T01:33:13.973Z,4.59
2023-11-22T01:33:46.078Z,4.56
2023-11-22T01:34:17.925Z,4.56
2023-11-22T01:34:49.783Z,4.56
2023-11-22T01:35:21.643Z,4.49
2023-11-22T01:35:53.477Z,4.45
2023-11-22T01:36:26.818Z,4.45
2023-11-22T01:36:58.671Z,4.48
2023-11-22T01:37:30.486Z,4.51
2023-11-22T01:38:05.450Z,4.50
2023-11-22T01:38:40.326Z,4.49
2023-11-22T01:39:16.505Z,4.47
2023-11-22T01:39:48.381Z,4.49
2023-11-22T01:40:20.862Z,4.49
2023-11-22T01:40:53.146Z,4.48
2023-11-22T01:41:25.499Z,4.45
2023-11-22T01:41:57.411Z,4.47
2023-11-22T01:42:29.254Z,4.48
2023-11-22T01:43:03.695Z,4.48
2023-11-22T01:43:35.527Z,4.49
2023-11-22T01:44:07.465Z,4.51
2023-11-22T01:44:39.407Z,4.48
2023-11-22T01:45:11.529Z,4.46
2023-11-22T01:45:43.785Z,4.47
2023-11-22T01:46:26.776Z,4.48
2023-11-22T01:46:59.432Z,4.51
2023-11-22T01:47:32.063Z,4.51
2023-11-22T01:48:04.204Z,4.53
2023-11-22T01:48:37.851Z,4.53
2023-11-22T01:49:11.453Z,4.51
2023-11-22T01:49:43.268Z,4.53
2023-11-22T01:50:16.006Z,4.55
2023-11-22T01:50:49.121Z,4.56
2023-11-22T01:51:25.785Z,4.56
2023-11-22T01:51:57.734Z,4.58
2023-11-22T01:52:29.592Z,4.60
2023-11-22T01:53:01.709Z,4.61
2023-11-22T01:53:33.721Z,4.60
2023-11-22T01:54:09.298Z,4.60
2023-11-22T01:54:43.935Z,4.60
2023-11-22T01:55:17.156Z,4.60
2023-11-22T01:55:49.648Z,4.56
2023-11-22T01:56:23.664Z,4.57
2023-11-22T01:56:56.820Z,4.58
2023-11-22T01:57:28.944Z,4.56
2023-11-22T01:58:01.119Z,4.58
2023-11-22T01:58:33.476Z,4.56
2023-11-22T01:59:06.222Z,4.57
2023-11-22T01:59:40.381Z,4.59
2023-11-22T02:00:16.144Z,4.61
2023-11-22T02:00:53.849Z,4.61
2023-11-22T02:01:27.721Z,4.64
2023-11-22T02:01:59.666Z,4.67
2023-11-22T02:02:32.858Z,4.68
2023-11-22T02:03:05.069Z,4.69
2023-11-22T02:03:37.241Z,4.69
2023-11-22T02:04:10.844Z,4.71
2023-11-22T02:04:42.725Z,4.68
2023-11-22T02:05:15.413Z,4.68
2023-11-22T02:05:47.483Z,4.66
2023-11-22T02:06:20.446Z,4.64
2023-11-22T02:06:52.753Z,4.65
2023-11-22T02:07:24.833Z,4.64
2023-11-22T02:07:56.866Z,4.64
2023-11-22T02:08:29.723Z,4.63
2023-11-22T02:09:02.305Z,4.63
2023-11-22T02:09:34.132Z,4.63
2023-11-22T02:10:08.775Z,4.64
2023-11-22T02:10:40.950Z,4.64
2023-11-22T02:11:12.797Z,4.64
2023-11-22T02:11:48.805Z,4.63
2023-11-22T02:12:21.136Z,4.64
2023-11-22T02:12:52.984Z,4.65
2023-11-22T02:13:24.821Z,4.66
2023-11-22T02:13:56.940Z,4.66
2023-11-22T02:14:28.921Z,4.65
2023-11-22T02:15:00.853Z,4.67
2023-11-22T02:15:32.932Z,4.68
2023-11-22T02:16:05.154Z,4.68
2023-11-22T02:16:38.616Z,4.66
2023-11-22T02:17:10.998Z,4.63
2023-11-22T02:17:42.953Z,4.64
2023-11-22T02:18:14.804Z,4.64
2023-11-22T02:18:48.374Z,4.62
2023-11-22T02:19:20.984Z,4.61
2023-11-22T02:19:53.048Z,4.60
2023-11-22T02:20:24.895Z,4.59
2023-11-22T02:20:57.492Z,4.58
2023-11-22T02:21:29.308Z,4.57
2023-11-22T02:22:01.307Z,4.57
2023-11-22T02:22:33.399Z,4.59
2023-11-22T02:23:10.389Z,4.61
2023-11-22T02:23:43.347Z,4.59
2023-11-22T02:24:15.261Z,4.59
2023-11-22T02:24:47.123Z,4.59
2023-11-22T02:25:18.938Z,4.58
2023-11-22T02:25:50.757Z,4.54
2023-11-22T02:26:22.739Z,4.53
2023-11-22T02:26:54.552Z,4.52
2023-11-22T02:27:26.410Z,4.55
2023-11-22T02:27:58.243Z,4.55
2023-11-22T02:28:30.455Z,4.55
2023-11-22T02:29:02.335Z,4.55
2023-11-22T02:29:34.605Z,4.56
2023-11-22T02:30:07.109Z,4.56
2023-11-22T02:30:39.370Z,4.54
2023-11-22T02:31:11.220Z,4.55
2023-11-22T02:31:46.997Z,4.54
2023-11-22T02:32:19.816Z,4.57
2023-11-22T02:32:51.684Z,4.60
2023-11-22T02:33:23.571Z,4.63
2023-11-22T02:33:56.335Z,4.60
2023-11-22T02:34:28.601Z,4.62
2023-11-22T02:35:00.820Z,4.64
2023-11-22T02:35:33.613Z,4.67
2023-11-22T02:36:05.810Z,4.66
2023-11-22T02:36:38.170Z,4.68
2023-11-22T02:37:10.021Z,4.70
2023-11-22T02:37:41.869Z,4.71
2023-11-22T02:38:13.700Z,4.73
2023-11-22T02:38:47.151Z,4.74
2023-11-22T02:39:20.005Z,4.74
2023-11-22T02:40:05.596Z,4.73
2023-11-22T02:40:37.575Z,4.70
2023-11-22T02:41:10.373Z,4.69
2023-11-22T02:41:42.371Z,4.68
2023-11-22T02:42:14.497Z,4.66
2023-11-22T02:42:50.777Z,4.64
2023-11-22T02:43:24.397Z,4.63
2023-11-22T02:43:57.723Z,4.66
2023-11-22T02:44:29.613Z,4.65
2023-11-22T02:45:01.515Z,4.65
2023-11-22T02:45:33.741Z,4.63
2023-11-22T02:46:05.632Z,4.62
2023-11-22T02:46:37.493Z,4.62
2023-11-22T02:47:11.563Z,4.65
2023-11-22T02:47:45.638Z,4.66
2023-11-22T02:48:17.646Z,4.66
2023-11-22T02:48:49.622Z,4.69
2023-11-22T02:49:21.439Z,4.69
2023-11-22T02:49:53.523Z,4.68
2023-11-22T02:50:26.594Z,4.67
2023-11-22T02:50:58.476Z,4.67
2023-11-22T02:51:30.291Z,4.66
2023-11-22T02:52:02.227Z,4.65
2023-11-22T02:52:34.171Z,4.65
2023-11-22T02:53:06.228Z,4.61
2023-11-22T02:53:38.425Z,4.61
2023-11-22T02:54:10.725Z,4.63
2023-11-22T02:54:46.805Z,4.58
2023-11-22T02:55:18.781Z,4.59
2023-11-22T02:55:50.607Z,4.59
2023-11-22T02:56:22.543Z,4.60
2023-11-22T02:56:54.396Z,4.61
2023-11-22T02:57:27.309Z,4.59
2023-11-22T02:57:59.136Z,4.61
2023-11-22T02:58:32.216Z,4.61
2023-11-22T02:59:04.329Z,4.57
2023-11-22T02:59:36.288Z,4.52
2023-11-22T03:00:09.445Z,4.54
2023-11-22T03:00:42.411Z,4.53
2023-11-22T03:01:14.426Z,4.54
2023-11-22T03:01:47.242Z,4.54
2023-11-22T03:02:19.337Z,4.55
2023-11-22T03:02:55.373Z,4.54
2023-11-22T03:03:27.964Z,4.47
2023-11-22T03:04:01.273Z,4.41
2023-11-22T03:04:33.226Z,4.42
2023-11-22T03:05:05.409Z,4.37
2023-11-22T03:05:43.639Z,4.35
2023-11-22T03:06:16.037Z,4.37
2023-11-22T03:06:47.875Z,4.31
2023-11-22T03:07:19.710Z,4.32
2023-11-22T03:07:52.304Z,4.34
2023-11-22T03:08:24.232Z,4.36
2023-11-22T03:08:56.066Z,4.38
2023-11-22T03:09:27.906Z,4.35
2023-11-22T03:10:01.614Z,4.31
2023-11-22T03:10:33.957Z,4.22
2023-11-22T03:11:05.831Z,4.25
2023-11-22T03:11:37.977Z,4.24
2023-11-22T03:12:10.229Z,4.19
2023-11-22T03:12:42.275Z,4.18
2023-11-22T03:13:14.124Z,4.13
2023-11-22T03:13:46.036Z,4.13
2023-11-22T03:14:18.269Z,4.20
2023-11-22T03:14:50.313Z,4.21
2023-11-22T03:15:22.252Z,4.24
2023-11-22T03:15:54.057Z,4.25
2023-11-22T03:16:26.014Z,4.26
2023-11-22T03:16:58.942Z,4.25
2023-11-22T03:17:31.185Z,4.25
2023-11-22T03:18:04.396Z,4.27
2023-11-22T03:18:37.249Z,4.27
2023-11-22T03:19:09.124Z,4.27
2023-11-22T03:19:41.108Z,4.28
2023-11-22T03:20:13.091Z,4.25
2023-11-22T03:20:45.209Z,4.22
2023-11-22T03:21:18.322Z,4.23
2023-11-22T03:21:50.308Z,4.19
2023-11-22T03:22:22.120Z,4.22
2023-11-22T03:22:54.072Z,4.19
2023-11-22T03:23:27.261Z,4.17
2023-11-22T03:24:01.354Z,4.19
2023-11-22T03:24:38.139Z,4.17
2023-11-22T03:25:11.458Z,4.17
2023-11-22T03:25:43.444Z,4.16
2023-11-22T03:26:15.660Z,4.16
2023-11-22T03:26:47.495Z,4.15
2023-11-22T03:27:19.651Z,4.16
2023-11-22T03:27:51.648Z,4.13
2023-11-22T03:28:23.678Z,4.12
2023-11-22T03:28:55.532Z,4.14
2023-11-22T03:29:27.433Z,4.10
2023-11-22T03:30:00.609Z,4.10
2023-11-22T03:30:32.709Z,4.13
2023-11-22T03:31:06.576Z,4.14
2023-11-22T03:31:40.072Z,4.17
2023-11-22T03:32:12.688Z,4.19
2023-11-22T03:32:45.520Z,4.16
2023-11-22T03:33:17.537Z,4.16
2023-11-22T03:33:49.446Z,4.22
2023-11-22T03:34:21.795Z,4.25
2023-11-22T03:34:53.717Z,4.23
2023-11-22T03:35:25.602Z,4.21
2023-11-22T03:35:59.158Z,4.14
2023-11-22T03:36:30.978Z,4.18
2023-11-22T03:37:02.812Z,4.20
2023-11-22T03:37:35.206Z,4.19
2023-11-22T03:38:07.107Z,4.13
2023-11-22T03:38:40.886Z,4.15
2023-11-22T03:39:12.847Z,4.12
2023-11-22T03:39:49.536Z,4.13
2023-11-22T03:40:21.584Z,4.14
2023-11-22T03:40:54.559Z,4.11
2023-11-22T03:41:26.412Z,4.13
2023-11-22T03:41:58.508Z,4.14
2023-11-22T03:42:30.823Z,4.12
2023-11-22T03:43:02.661Z,4.16
2023-11-22T03:43:34.500Z,4.18
2023-11-22T03:44:09.910Z,4.17
2023-11-22T03:44:41.981Z,4.14
2023-11-22T03:45:15.489Z,4.13
2023-11-22T03:45:47.301Z,4.13
2023-11-22T03:46:19.115Z,4.14
2023-11-22T03:46:51.056Z,4.14
2023-11-22T03:47:23.024Z,4.13
2023-11-22T03:47:54.952Z,4.13
2023-11-22T03:48:27.561Z,4.16
2023-11-22T03:49:00.023Z,4.16
2023-11-22T03:49:31.852Z,4.15
2023-11-22T03:50:03.753Z,4.16
2023-11-22T03:50:35.580Z,4.14
2023-11-22T03:51:07.534Z,4.16
2023-11-22T03:51:40.230Z,4.14
2023-11-22T03:52:12.851Z,4.17
2023-11-22T03:52:44.768Z,4.20
2023-11-22T03:53:16.722Z,4.18
2023-11-22T03:53:48.580Z,4.18
2023-11-22T03:54:20.424Z,4.14
2023-11-22T03:54:52.253Z,4.14
2023-11-22T03:55:24.312Z,4.17
2023-11-22T03:55:56.464Z,4.18
2023-11-22T03:56:28.862Z,4.20
2023-11-22T03:57:00.754Z,4.20
2023-11-22T03:57:32.592Z,4.20
2023-11-22T03:58:04.432Z,4.24
2023-11-22T03:58:37.674Z,4.26
2023-11-22T03:59:09.503Z,4.27
2023-11-22T03:59:42.038Z,4.29
2023-11-22T04:00:15.117Z,4.29
2023-11-22T04:00:47.103Z,4.31
2023-11-22T04:01:21.593Z,4.30
2023-11-22T04:01:53.513Z,4.23
2023-11-22T04:02:25.363Z,4.24
2023-11-22T04:03:00.554Z,4.21
2023-11-22T04:03:32.530Z,4.21
2023-11-22T04:04:04.593Z,4.21
2023-11-22T04:04:37.872Z,4.24
2023-11-22T04:05:12.875Z,4.26
2023-11-22T04:05:44.806Z,4.26
2023-11-22T04:06:17.861Z,4.24
2023-11-22T04:06:49.723Z,4.24
2023-11-22T04:07:21.550Z,4.22
2023-11-22T04:07:53.392Z,4.25
2023-11-22T04:08:25.656Z,4.23
2023-11-22T04:08:57.482Z,4.23
2023-11-22T04:09:30.618Z,4.19
2023-11-22T04:10:02.504Z,4.19
2023-11-22T04:10:34.333Z,4.19
2023-11-22T04:11:06.639Z,4.15
2023-11-22T04:11:38.489Z,4.13
2023-11-22T04:12:10.337Z,4.12
2023-11-22T04:12:42.163Z,4.12
2023-11-22T04:13:14.088Z,4.09
2023-11-22T04:13:46.358Z,4.13
2023-11-22T04:14:21.590Z,4.12
2023-11-22T04:14:53.943Z,4.11
2023-11-22T04:15:27.217Z,4.11
2023-11-22T04:15:59.389Z,4.12
2023-11-22T04:16:31.672Z,4.14
2023-11-22T04:17:04.201Z,4.13
2023-11-22T04:17:38.210Z,4.15
2023-11-22T04:18:10.690Z,4.17
2023-11-22T04:18:43.122Z,4.16
2023-11-22T04:19:15.235Z,4.14
2023-11-22T04:19:47.419Z,4.20
2023-11-22T04:20:19.258Z,4.21
2023-11-22T04:20:51.125Z,4.20
2023-11-22T04:21:22.965Z,4.22
2023-11-22T04:21:55.543Z,4.22
2023-11-22T04:22:27.504Z,4.23
2023-11-22T04:22:59.370Z,4.23
2023-11-22T04:23:31.263Z,4.21
2023-11-22T04:24:03.231Z,4.22
2023-11-22T04:24:35.058Z,4.21
2023-11-22T04:25:07.308Z,4.18
2023-11-22T04:25:39.383Z,4.21
2023-11-22T04:26:11.950Z,4.20
2023-11-22T04:26:43.810Z,4.20
2023-11-22T04:27:15.760Z,4.20
2023-11-22T04:27:47.796Z,4.20
2023-11-22T04:28:19.924Z,4.21
2023-11-22T04:28:51.820Z,4.17
2023-11-22T04:29:23.662Z,4.16
2023-11-22T04:29:56.005Z,4.16
2023-11-22T04:30:27.965Z,4.13
2023-11-22T04:31:00.049Z,4.12
2023-11-22T04:31:32.119Z,4.15
2023-11-22T04:32:04.289Z,4.16
2023-11-22T04:32:39.308Z,4.12
2023-11-22T04:33:11.388Z,4.16
2023-11-22T04:33:43.352Z,4.18
2023-11-22T04:34:15.214Z,4.12
2023-11-22T04:34:47.004Z,4.10
2023-11-22T04:35:18.915Z,4.12
2023-11-22T04:35:51.008Z,4.09
2023-11-22T04:36:25.524Z,4.09
2023-11-22T04:36:57.721Z,4.11
2023-11-22T04:37:32.974Z,4.14
2023-11-22T04:38:04.968Z,4.18
2023-11-22T04:38:36.913Z,4.20
2023-11-22T04:39:08.862Z,4.16
2023-11-22T04:39:40.736Z,4.17
2023-11-22T04:40:15.525Z,4.18
2023-11-22T04:40:47.390Z,4.19
2023-11-22T04:41:19.669Z,4.17
2023-11-22T04:41:52.066Z,4.18
2023-11-22T04:42:26.890Z,4.18
2023-11-22T04:42:58.709Z,4.21
2023-11-22T04:43:30.562Z,4.22
2023-11-22T04:44:03.009Z,4.21
2023-11-22T04:44:35.059Z,4.23
2023-11-22T04:45:07.750Z,4.24
2023-11-22T04:45:40.056Z,4.25
2023-11-22T04:46:12.033Z,4.22
2023-11-22T04:46:43.880Z,4.21
2023-11-22T04:47:15.803Z,4.20
2023-11-22T04:47:47.844Z,4.22
2023-11-22T04:48:20.104Z,4.22
2023-11-22T04:48:52.690Z,4.21
2023-11-22T04:49:24.614Z,4.21
2023-11-22T04:49:56.480Z,4.19
2023-11-22T04:50:28.371Z,4.18
2023-11-22T04:51:00.217Z,4.18
2023-11-22T04:51:33.340Z,4.19
2023-11-22T04:52:05.398Z,4.20
2023-11-22T04:52:37.299Z,4.20
2023-11-22T04:53:11.885Z,4.21
2023-11-22T04:53:45.305Z,4.21
2023-11-22T04:54:17.175Z,4.22
2023-11-22T04:54:49.302Z,4.23
2023-11-22T04:55:21.119Z,4.23
2023-11-22T04:55:52.926Z,4.24
2023-11-22T04:56:24.844Z,4.22
2023-11-22T04:56:56.854Z,4.24
2023-11-22T04:57:28.693Z,4.26
2023-11-22T04:58:00.506Z,4.20
2023-11-22T04:58:34.622Z,4.20
2023-11-22T04:59:06.507Z,4.21
2023-11-22T04:59:39.736Z,4.21
2023-11-22T05:00:12.262Z,4.17
2023-11-22T05:00:44.149Z,4.13
2023-11-22T05:01:17.733Z,4.12
2023-11-22T05:01:51.612Z,4.16
2023-11-22T05:02:23.463Z,4.18
2023-11-22T05:02:55.631Z,4.18
2023-11-22T05:03:27.543Z,4.21
2023-11-22T05:03:59.987Z,4.21
2023-11-22T05:04:31.850Z,4.18
2023-11-22T05:05:04.006Z,4.21
2023-11-22T05:05:35.989Z,4.23
2023-11-22T05:06:08.278Z,4.23
2023-11-22T05:06:40.097Z,4.25
2023-11-22T05:07:11.906Z,4.24
2023-11-22T05:07:45.797Z,4.26
2023-11-22T05:08:17.684Z,4.27
2023-11-22T05:08:49.631Z,4.28
2023-11-22T05:09:21.722Z,4.23
2023-11-22T05:09:53.635Z,4.26
2023-11-22T05:10:25.478Z,4.23
2023-11-22T05:10:57.446Z,4.24
2023-11-22T05:11:29.365Z,4.26
2023-11-22T05:12:01.329Z,4.23
2023-11-22T05:12:36.529Z,4.23
2023-11-22T05:13:08.687Z,4.22
2023-11-22T05:13:40.520Z,4.17
2023-11-22T05:14:12.407Z,4.17
2023-11-22T05:14:47.342Z,4.14
2023-11-22T05:15:19.252Z,4.17
2023-11-22T05:15:51.754Z,4.18
2023-11-22T05:16:24.945Z,4.16
2023-11-22T05:16:57.889Z,4.16
2023-11-22T05:17:30.040Z,4.17
2023-11-22T05:18:03.016Z,4.10
2023-11-22T05:18:34.858Z,4.14
2023-11-22T05:19:06.940Z,4.07
2023-11-22T05:19:38.955Z,4.08
2023-11-22T05:20:11.152Z,4.08
2023-11-22T05:20:43.179Z,4.05
2023-11-22T05:21:15.041Z,4.09
2023-11-22T05:21:46.873Z,4.07
2023-11-22T05:22:18.703Z,4.08
2023-11-22T05:22:50.564Z,4.11
2023-11-22T05:23:23.248Z,4.10
2023-11-22T05:23:55.686Z,4.11
2023-11-22T05:24:27.740Z,4.08
2023-11-22T05:24:59.588Z,4.07
2023-11-22T05:25:31.579Z,4.08
2023-11-22T05:26:03.416Z,4.08
2023-11-22T05:26:35.267Z,4.10
2023-11-22T05:27:07.755Z,4.02
2023-11-22T05:27:39.561Z,3.99
2023-11-22T05:28:11.393Z,4.01
2023-11-22T05:28:43.201Z,3.97
2023-11-22T05:29:15.279Z,3.94
2023-11-22T05:29:53.067Z,3.90
2023-11-22T05:30:27.489Z,3.92
2023-11-22T05:30:59.325Z,3.93
2023-11-22T05:31:31.208Z,3.87
2023-11-22T05:32:03.956Z,3.87
2023-11-22T05:32:35.943Z,3.86
2023-11-22T05:33:08.472Z,3.84
2023-11-22T05:33:41.172Z,3.79
2023-11-22T05:34:13.009Z,3.78
2023-11-22T05:34:44.856Z,3.76
2023-11-22T05:35:16.753Z,3.71
2023-11-22T05:35:48.644Z,3.74
2023-11-22T05:36:20.476Z,3.74
2023-11-22T05:36:52.961Z,3.75
2023-11-22T05:37:26.287Z,3.72
2023-11-22T05:37:59.195Z,3.73
2023-11-22T05:38:31.034Z,3.73
2023-11-22T05:39:04.851Z,3.71
2023-11-22T05:39:38.020Z,3.71
2023-11-22T05:40:11.150Z,3.66
2023-11-22T05:40:44.199Z,3.67
2023-11-22T05:41:16.860Z,3.68
2023-11-22T05:41:48.948Z,3.68
2023-11-22T05:42:20.765Z,3.68
2023-11-22T05:42:52.602Z,3.68
2023-11-22T05:43:27.873Z,3.66
2023-11-22T05:43:59.890Z,3.66
2023-11-22T05:44:31.797Z,3.61
2023-11-22T05:45:05.197Z,3.61
2023-11-22T05:45:37.194Z,3.61
2023-11-22T05:46:09.248Z,3.65
2023-11-22T05:46:41.087Z,3.64
2023-11-22T05:47:14.414Z,3.62
2023-11-22T05:47:46.550Z,3.57
2023-11-22T05:48:18.498Z,3.59
2023-11-22T05:48:51.908Z,3.57
2023-11-22T05:49:23.756Z,3.57
2023-11-22T05:49:55.591Z,3.59
2023-11-22T05:50:27.490Z,3.57
2023-11-22T05:50:59.435Z,3.58
2023-11-22T05:51:31.301Z,3.58
2023-11-22T05:52:03.150Z,3.58
2023-11-22T05:52:35.122Z,3.58
2023-11-22T05:53:06.970Z,3.60
2023-11-22T05:53:38.875Z,3.59
2023-11-22T05:54:12.971Z,3.56
2023-11-22T05:54:44.847Z,3.53
2023-11-22T05:55:16.780Z,3.55
2023-11-22T05:55:51.667Z,3.52
2023-11-22T05:56:23.492Z,3.51
2023-11-22T05:56:55.624Z,3.45
2023-11-22T05:57:27.481Z,3.46
2023-11-22T05:57:59.277Z,3.48
2023-11-22T05:58:31.099Z,3.50
2023-11-22T05:59:03.044Z,3.51
2023-11-22T05:59:35.173Z,3.44
2023-11-22T06:00:08.309Z,3.45
2023-11-22T06:00:40.179Z,3.48
2023-11-22T06:01:15.363Z,3.47
2023-11-22T06:01:47.188Z,3.47
2023-11-22T06:02:19.191Z,3.49
2023-11-22T06:02:51.357Z,3.51
2023-11-22T06:03:23.300Z,3.51
2023-11-22T06:03:55.467Z,3.53
2023-11-22T06:04:27.364Z,3.47
2023-11-22T06:04:59.275Z,3.45
2023-11-22T06:05:32.140Z,3.40
2023-11-22T06:06:04.322Z,3.44
2023-11-22T06:06:36.944Z,3.46
2023-11-22T06:07:09.204Z,3.48
2023-11-22T06:07:41.040Z,3.47
2023-11-22T06:08:13.062Z,3.48
2023-11-22T06:08:44.968Z,3.47
2023-11-22T06:09:16.863Z,3.47
2023-11-22T06:09:48.751Z,3.48
2023-11-22T06:10:20.987Z,3.49
2023-11-22T06:10:54.256Z,3.44
2023-11-22T06:11:26.629Z,3.44
2023-11-22T06:11:58.499Z,3.44
2023-11-22T06:12:30.293Z,3.41
2023-11-22T06:13:02.115Z,3.43
2023-11-22T06:13:33.952Z,3.47
2023-11-22T06:14:05.796Z,3.49
2023-11-22T06:14:37.834Z,3.51
2023-11-22T06:15:10.077Z,3.49
2023-11-22T06:15:42.444Z,3.49
2023-11-22T06:16:14.564Z,3.53
2023-11-22T06:16:46.412Z,3.54
2023-11-22T06:17:19.149Z,3.54
2023-11-22T06:17:51.175Z,3.52
2023-11-22T06:18:23.102Z,3.56
2023-11-22T06:18:54.969Z,3.59
2023-11-22T06:19:27.081Z,3.61
2023-11-22T06:19:58.936Z,3.59
2023-11-22T06:20:30.844Z,3.55
2023-11-22T06:21:02.777Z,3.57
2023-11-22T06:21:35.188Z,3.59
2023-11-22T06:22:08.010Z,3.57
2023-11-22T06:22:42.218Z,3.56
2023-11-22T06:23:14.474Z,3.58
2023-11-22T06:23:46.344Z,3.59
2023-11-22T06:24:18.221Z,3.57
2023-11-22T06:24:50.081Z,3.57
2023-11-22T06:25:21.947Z,3.60
2023-11-22T06:25:53.825Z,3.61
2023-11-22T06:26:26.207Z,3.61
2023-11-22T06:26:58.212Z,3.56
2023-11-22T06:27:30.043Z,3.60
2023-11-22T06:28:03.050Z,3.61
2023-11-22T06:28:36.219Z,3.60
2023-11-22T06:29:09.722Z,3.61
2023-11-22T06:29:41.663Z,3.60
2023-11-22T06:30:13.901Z,3.59
2023-11-22T06:30:45.742Z,3.57
2023-11-22T06:31:17.565Z,3.53
2023-11-22T06:31:49.418Z,3.55
2023-11-22T06:32:21.279Z,3.59
2023-11-22T06:32:53.160Z,3.59
2023-11-22T06:33:25.702Z,3.59
2023-11-22T06:33:57.701Z,3.61
2023-11-22T06:34:29.539Z,3.65
2023-11-22T06:35:01.598Z,3.61
2023-11-22T06:35:34.114Z,3.55
2023-11-22T06:36:06.153Z,3.60
2023-11-22T06:36:37.978Z,3.65
2023-11-22T06:37:10.024Z,3.65
2023-11-22T06:37:42.328Z,3.65
2023-11-22T06:38:14.174Z,3.63
2023-11-22T06:38:47.651Z,3.65
2023-11-22T06:39:19.561Z,3.62
2023-11-22T06:39:52.046Z,3.63
2023-11-22T06:40:24.013Z,3.64
2023-11-22T06:40:55.873Z,3.62
2023-11-22T06:41:27.734Z,3.60
2023-11-22T06:41:59.602Z,3.61
2023-11-22T06:42:31.441Z,3.60
2023-11-22T06:43:05.413Z,3.58
2023-11-22T06:43:37.264Z,3.53
2023-11-22T06:44:09.115Z,3.49
2023-11-22T06:44:43.736Z,3.49
2023-11-22T06:45:16.200Z,3.51
2023-11-22T06:45:48.059Z,3.50
2023-11-22T06:46:19.892Z,3.54
2023-11-22T06:46:51.790Z,3.56
2023-11-22T06:47:23.657Z,3.58
2023-11-22T06:47:55.672Z,3.57
2023-11-22T06:48:27.663Z,3.53
2023-11-22T06:48:59.865Z,3.53
2023-11-22T06:49:31.733Z,3.51
2023-11-22T06:50:10.307Z,3.47
2023-11-22T06:50:43.413Z,3.42
2023-11-22T06:51:15.543Z,3.43
2023-11-22T06:51:47.676Z,3.43
2023-11-22T06:52:20.072Z,3.47
2023-11-22T06:52:53.789Z,3.50
2023-11-22T06:53:26.952Z,3.51
2023-11-22T06:53:59.182Z,3.51
2023-11-22T06:54:32.372Z,3.38
2023-11-22T06:55:04.556Z,3.41
2023-11-22T06:55:36.390Z,3.44
2023-11-22T06:56:08.304Z,3.44
2023-11-22T06:56:40.248Z,3.49
2023-11-22T06:57:12.061Z,3.46
2023-11-22T06:57:43.889Z,3.49
2023-11-22T06:58:15.744Z,3.49
2023-11-22T06:58:47.584Z,3.50
2023-11-22T06:59:19.996Z,3.53
2023-11-22T06:59:51.875Z,3.54
2023-11-22T07:00:23.674Z,3.54
2023-11-22T07:00:56.565Z,3.54
2023-11-22T07:01:28.656Z,3.44
2023-11-22T07:02:01.249Z,3.49
2023-11-22T07:02:37.159Z,3.49
2023-11-22T07:03:09.149Z,3.51
2023-11-22T07:03:41.627Z,3.49
2023-11-22T07:04:14.435Z,3.51
2023-11-22T07:04:46.573Z,3.53
2023-11-22T07:05:20.260Z,3.47
2023-11-22T07:05:52.227Z,3.46
2023-11-22T07:06:24.187Z,3.47
2023-11-22T07:06:56.064Z,3.44
2023-11-22T07:07:28.100Z,3.45
2023-11-22T07:08:00.512Z,3.44
2023-11-22T07:08:32.371Z,3.43
2023-11-22T07:09:05.366Z,3.40
2023-11-22T07:09:37.719Z,3.40
2023-11-22T07:10:09.875Z,3.39
2023-11-22T07:10:41.746Z,3.40
2023-11-22T07:11:13.603Z,3.39
2023-11-22T07:11:45.644Z,3.40
2023-11-22T07:12:17.859Z,3.39